Colstrip, Montana
Current Conditions -  °F | °C
As of 7:00 AM on Wednesday 26 Nov 2014 (Local Time) from KMLS Reporting Station
Light Snow Light Snow  
Wind Chill: 27°   Ceiling: 3000
Heat Index: 27°   Visibility: 1.7mi
Dew Point: 25°   Wind: 0mph
Humidity: 92%   Direction: NA
Pressure: 30.21"   Gusts: NA
Location:  45.88°N, 106.62°W
Report Text: KMLS 261400Z AUTO 00000KT 1 3/4SM -SN BR BKN030 OVC036 M03/M04 A3021 RMK AO2 P0000 T10281039
Loading
Personal Weather Stations






























Interactive Weather Map New forecast layout! Learn more

10-Day Weather Forecast

Advertisements
Track Severe Weather on mobile